sensor_id;sensor_type;location;lat;lon;timestamp;temperature;humidity
2625;DHT22;1322;53.256;10.386;2024-01-30T00:01:52;5.70;99.90
2625;DHT22;1322;53.256;10.386;2024-01-30T00:04:18;5.70;99.90
2625;DHT22;1322;53.256;10.386;2024-01-30T00:06:44;5.80;99.90
2625;DHT22;1322;53.256;10.386;2024-01-30T00:09:10;5.80;99.90
2625;DHT22;1322;53.256;10.386;2024-01-30T00:11:37;5.70;99.90
2625;DHT22;1322;53.256;10.386;2024-01-30T00:14:03;5.70;99.90
2625;DHT22;1322;53.256;10.386;2024-01-30T00:16:29;5.70;99.90
2625;DHT22;1322;53.256;10.386;2024-01-30T00:18:55;6.30;99.90
2625;DHT22;1322;53.256;10.386;2024-01-30T00:21:21;5.80;99.90
2625;DHT22;1322;53.256;10.386;2024-01-30T00:23:47;5.60;99.90
2625;DHT22;1322;53.256;10.386;2024-01-30T00:26:13;5.70;99.90
2625;DHT22;1322;53.256;10.386;2024-01-30T00:28:40;5.70;99.90
2625;DHT22;1322;53.256;10.386;2024-01-30T00:31:06;5.80;99.90
2625;DHT22;1322;53.256;10.386;2024-01-30T00:33:32;5.70;99.90
2625;DHT22;1322;53.256;10.386;2024-01-30T00:35:58;6.50;99.90
2625;DHT22;1322;53.256;10.386;2024-01-30T00:38:23;5.80;99.90
2625;DHT22;1322;53.256;10.386;2024-01-30T00:40:49;5.70;99.90
2625;DHT22;1322;53.256;10.386;2024-01-30T00:43:15;5.80;99.90
2625;DHT22;1322;53.256;10.386;2024-01-30T00:45:41;5.80;99.90
2625;DHT22;1322;53.256;10.386;2024-01-30T00:48:06;5.60;99.90
2625;DHT22;1322;53.256;10.386;2024-01-30T00:50:32;5.80;99.90
2625;DHT22;1322;53.256;10.386;2024-01-30T00:52:58;5.80;99.90
2625;DHT22;1322;53.256;10.386;2024-01-30T00:55:23;6.00;99.90
2625;DHT22;1322;53.256;10.386;2024-01-30T00:57:49;5.80;99.90
2625;DHT22;1322;53.256;10.386;2024-01-30T01:00:15;5.80;99.90
2625;DHT22;1322;53.256;10.386;2024-01-30T01:02:42;6.00;99.90
2625;DHT22;1322;53.256;10.386;2024-01-30T01:05:08;6.00;99.90
2625;DHT22;1322;53.256;10.386;2024-01-30T01:07:34;5.80;99.90
2625;DHT22;1322;53.256;10.386;2024-01-30T01:10:00;5.90;99.90
2625;DHT22;1322;53.256;10.386;2024-01-30T01:12:25;5.70;99.90
2625;DHT22;1322;53.256;10.386;2024-01-30T01:14:51;6.50;99.90
2625;DHT22;1322;53.256;10.386;2024-01-30T01:17:17;6.30;99.90
2625;DHT22;1322;53.256;10.386;2024-01-30T01:19:44;5.90;99.90
2625;DHT22;1322;53.256;10.386;2024-01-30T01:22:09;5.90;99.90
2625;DHT22;1322;53.256;10.386;2024-01-30T01:24:36;5.80;99.90
2625;DHT22;1322;53.256;10.386;2024-01-30T01:27:01;5.80;99.90
2625;DHT22;1322;53.256;10.386;2024-01-30T01:29:27;5.70;99.90
2625;DHT22;1322;53.256;10.386;2024-01-30T01:31:56;6.00;99.90
2625;DHT22;1322;53.256;10.386;2024-01-30T01:34:22;6.00;99.90
2625;DHT22;1322;53.256;10.386;2024-01-30T01:36:48;6.30;99.90
2625;DHT22;1322;53.256;10.386;2024-01-30T01:39:13;5.80;99.90
2625;DHT22;1322;53.256;10.386;2024-01-30T01:44:05;5.80;99.90
2625;DHT22;1322;53.256;10.386;2024-01-30T01:46:33;5.90;99.90
2625;DHT22;1322;53.256;10.386;2024-01-30T01:49:00;6.10;99.90
2625;DHT22;1322;53.256;10.386;2024-01-30T01:51:28;6.30;99.90
2625;DHT22;1322;53.256;10.386;2024-01-30T01:53:56;6.20;99.90
2625;DHT22;1322;53.256;10.386;2024-01-30T01:56:23;5.80;99.90
2625;DHT22;1322;53.256;10.386;2024-01-30T01:58:50;5.90;99.90
2625;DHT22;1322;53.256;10.386;2024-01-30T02:01:19;5.80;99.90
2625;DHT22;1322;53.256;10.386;2024-01-30T02:03:46;6.50;99.90
2625;DHT22;1322;53.256;10.386;2024-01-30T02:06:16;5.80;99.90
2625;DHT22;1322;53.256;10.386;2024-01-30T02:08:41;5.80;99.90
2625;DHT22;1322;53.256;10.386;2024-01-30T02:11:07;5.80;99.90
2625;DHT22;1322;53.256;10.386;2024-01-30T02:13:33;6.00;99.90
2625;DHT22;1322;53.256;10.386;2024-01-30T02:15:59;5.80;99.90
2625;DHT22;1322;53.256;10.386;2024-01-30T02:20:54;5.70;99.90
2625;DHT22;1322;53.256;10.386;2024-01-30T02:23:20;5.70;99.90
2625;DHT22;1322;53.256;10.386;2024-01-30T02:25:46;5.90;99.90
2625;DHT22;1322;53.256;10.386;2024-01-30T02:28:12;5.80;99.90
2625;DHT22;1322;53.256;10.386;2024-01-30T02:30:39;6.00;99.90
2625;DHT22;1322;53.256;10.386;2024-01-30T02:33:05;6.00;99.90
2625;DHT22;1322;53.256;10.386;2024-01-30T02:35:30;5.80;99.90
2625;DHT22;1322;53.256;10.386;2024-01-30T02:37:56;6.20;99.90
2625;DHT22;1322;53.256;10.386;2024-01-30T02:40:22;5.80;99.90
2625;DHT22;1322;53.256;10.386;2024-01-30T02:42:47;5.80;99.90
2625;DHT22;1322;53.256;10.386;2024-01-30T02:45:13;5.90;99.90
2625;DHT22;1322;53.256;10.386;2024-01-30T02:47:39;5.80;99.90
2625;DHT22;1322;53.256;10.386;2024-01-30T02:50:05;5.60;99.90
2625;DHT22;1322;53.256;10.386;2024-01-30T02:52:31;5.60;99.90
2625;DHT22;1322;53.256;10.386;2024-01-30T02:54:57;5.50;99.90
2625;DHT22;1322;53.256;10.386;2024-01-30T02:57:22;5.60;99.90
2625;DHT22;1322;53.256;10.386;2024-01-30T02:59:48;5.70;99.90
2625;DHT22;1322;53.256;10.386;2024-01-30T03:02:14;5.60;99.90
2625;DHT22;1322;53.256;10.386;2024-01-30T03:04:42;6.40;99.90
2625;DHT22;1322;53.256;10.386;2024-01-30T03:07:08;5.60;99.90
2625;DHT22;1322;53.256;10.386;2024-01-30T03:09:34;5.70;99.90
2625;DHT22;1322;53.256;10.386;2024-01-30T03:12:00;5.90;99.90
2625;DHT22;1322;53.256;10.386;2024-01-30T03:14:26;5.60;99.90
2625;DHT22;1322;53.256;10.386;2024-01-30T03:16:52;5.70;99.90
2625;DHT22;1322;53.256;10.386;2024-01-30T03:19:17;5.40;99.90
2625;DHT22;1322;53.256;10.386;2024-01-30T03:21:44;5.20;99.90
2625;DHT22;1322;53.256;10.386;2024-01-30T03:24:09;4.90;99.90
2625;DHT22;1322;53.256;10.386;2024-01-30T03:26:35;4.90;99.90
2625;DHT22;1322;53.256;10.386;2024-01-30T03:29:01;5.00;99.90
2625;DHT22;1322;53.256;10.386;2024-01-30T03:31:27;4.90;99.90
2625;DHT22;1322;53.256;10.386;2024-01-30T03:33:52;5.00;99.90
2625;DHT22;1322;53.256;10.386;2024-01-30T03:36:18;5.50;99.90
2625;DHT22;1322;53.256;10.386;2024-01-30T03:38:44;5.20;99.90
2625;DHT22;1322;53.256;10.386;2024-01-30T03:41:09;5.10;99.90
2625;DHT22;1322;53.256;10.386;2024-01-30T03:43:36;5.20;99.90
2625;DHT22;1322;53.256;10.386;2024-01-30T03:46:02;5.30;99.90
2625;DHT22;1322;53.256;10.386;2024-01-30T03:48:28;5.40;99.90
2625;DHT22;1322;53.256;10.386;2024-01-30T03:50:54;5.40;99.90
2625;DHT22;1322;53.256;10.386;2024-01-30T03:53:20;5.50;99.90
2625;DHT22;1322;53.256;10.386;2024-01-30T03:55:45;5.50;99.90
2625;DHT22;1322;53.256;10.386;2024-01-30T03:58:11;5.50;99.90
2625;DHT22;1322;53.256;10.386;2024-01-30T04:00:36;5.70;99.90
2625;DHT22;1322;53.256;10.386;2024-01-30T04:03:03;5.40;99.90
2625;DHT22;1322;53.256;10.386;2024-01-30T04:05:28;5.50;99.90
2625;DHT22;1322;53.256;10.386;2024-01-30T04:10:20;5.50;99.90
2625;DHT22;1322;53.256;10.386;2024-01-30T04:12:45;5.50;99.90
2625;DHT22;1322;53.256;10.386;2024-01-30T04:15:11;6.00;99.90
2625;DHT22;1322;53.256;10.386;2024-01-30T04:17:39;5.40;99.90
2625;DHT22;1322;53.256;10.386;2024-01-30T04:20:05;5.40;99.90
2625;DHT22;1322;53.256;10.386;2024-01-30T04:22:31;5.50;99.90
2625;DHT22;1322;53.256;10.386;2024-01-30T04:24:57;5.30;99.90
2625;DHT22;1322;53.256;10.386;2024-01-30T04:27:22;5.30;99.90
2625;DHT22;1322;53.256;10.386;2024-01-30T04:29:48;5.30;99.90
2625;DHT22;1322;53.256;10.386;2024-01-30T04:32:14;5.30;99.90
2625;DHT22;1322;53.256;10.386;2024-01-30T04:34:39;5.30;99.90
2625;DHT22;1322;53.256;10.386;2024-01-30T04:37:05;5.30;99.90
2625;DHT22;1322;53.256;10.386;2024-01-30T04:39:33;5.20;99.90
2625;DHT22;1322;53.256;10.386;2024-01-30T04:41:58;5.20;99.90
2625;DHT22;1322;53.256;10.386;2024-01-30T04:46:50;5.40;99.90
2625;DHT22;1322;53.256;10.386;2024-01-30T04:49:16;5.40;99.90
2625;DHT22;1322;53.256;10.386;2024-01-30T04:51:42;5.60;99.90
2625;DHT22;1322;53.256;10.386;2024-01-30T04:56:33;5.20;99.90
2625;DHT22;1322;53.256;10.386;2024-01-30T04:59:02;5.10;99.90
2625;DHT22;1322;53.256;10.386;2024-01-30T05:01:28;5.50;99.90
2625;DHT22;1322;53.256;10.386;2024-01-30T05:03:53;5.70;99.90
2625;DHT22;1322;53.256;10.386;2024-01-30T05:06:26;5.60;99.90
2625;DHT22;1322;53.256;10.386;2024-01-30T05:08:51;5.70;99.90
2625;DHT22;1322;53.256;10.386;2024-01-30T05:11:17;6.00;99.90
2625;DHT22;1322;53.256;10.386;2024-01-30T05:13:43;5.80;99.90
2625;DHT22;1322;53.256;10.386;2024-01-30T05:16:08;5.50;99.90
2625;DHT22;1322;53.256;10.386;2024-01-30T05:18:34;5.60;99.90
2625;DHT22;1322;53.256;10.386;2024-01-30T05:21:00;5.70;99.90
2625;DHT22;1322;53.256;10.386;2024-01-30T05:23:25;5.80;99.90
2625;DHT22;1322;53.256;10.386;2024-01-30T05:25:51;5.60;99.90
2625;DHT22;1322;53.256;10.386;2024-01-30T05:28:17;5.70;99.90
2625;DHT22;1322;53.256;10.386;2024-01-30T05:35:35;5.30;99.90
2625;DHT22;1322;53.256;10.386;2024-01-30T05:38:00;5.50;99.90
2625;DHT22;1322;53.256;10.386;2024-01-30T05:40:26;5.80;99.90
2625;DHT22;1322;53.256;10.386;2024-01-30T05:42:52;5.40;99.90
2625;DHT22;1322;53.256;10.386;2024-01-30T05:45:18;5.50;99.90
2625;DHT22;1322;53.256;10.386;2024-01-30T05:47:43;5.50;99.90
2625;DHT22;1322;53.256;10.386;2024-01-30T05:50:09;5.40;99.90
2625;DHT22;1322;53.256;10.386;2024-01-30T05:52:35;5.70;99.90
2625;DHT22;1322;53.256;10.386;2024-01-30T05:55:00;5.20;99.90
2625;DHT22;1322;53.256;10.386;2024-01-30T05:57:26;5.30;99.90
2625;DHT22;1322;53.256;10.386;2024-01-30T05:59:52;5.40;99.90
2625;DHT22;1322;53.256;10.386;2024-01-30T06:02:17;5.30;99.90
2625;DHT22;1322;53.256;10.386;2024-01-30T06:04:43;5.20;99.90
2625;DHT22;1322;53.256;10.386;2024-01-30T06:07:09;5.40;99.90
2625;DHT22;1322;53.256;10.386;2024-01-30T06:09:35;5.60;99.90
2625;DHT22;1322;53.256;10.386;2024-01-30T06:12:01;5.50;99.90
2625;DHT22;1322;53.256;10.386;2024-01-30T06:14:26;5.40;99.90
2625;DHT22;1322;53.256;10.386;2024-01-30T06:16:52;5.30;99.90
2625;DHT22;1322;53.256;10.386;2024-01-30T06:19:19;5.10;99.90
2625;DHT22;1322;53.256;10.386;2024-01-30T06:24:10;5.50;99.90
2625;DHT22;1322;53.256;10.386;2024-01-30T06:26:36;5.40;99.90
2625;DHT22;1322;53.256;10.386;2024-01-30T06:29:01;5.50;99.90
2625;DHT22;1322;53.256;10.386;2024-01-30T06:31:27;5.60;99.90
2625;DHT22;1322;53.256;10.386;2024-01-30T06:33:53;5.50;99.90
2625;DHT22;1322;53.256;10.386;2024-01-30T06:36:18;5.40;99.90
2625;DHT22;1322;53.256;10.386;2024-01-30T06:43:36;5.70;99.90
2625;DHT22;1322;53.256;10.386;2024-01-30T06:46:01;5.60;99.90
2625;DHT22;1322;53.256;10.386;2024-01-30T06:48:27;5.50;99.90
2625;DHT22;1322;53.256;10.386;2024-01-30T06:50:53;5.60;99.90
2625;DHT22;1322;53.256;10.386;2024-01-30T06:53:19;6.10;99.90
2625;DHT22;1322;53.256;10.386;2024-01-30T06:55:45;5.60;99.90
2625;DHT22;1322;53.256;10.386;2024-01-30T06:58:11;5.70;99.90
2625;DHT22;1322;53.256;10.386;2024-01-30T07:00:37;5.80;99.90
2625;DHT22;1322;53.256;10.386;2024-01-30T07:03:03;5.70;99.90
2625;DHT22;1322;53.256;10.386;2024-01-30T07:05:28;5.50;99.90
2625;DHT22;1322;53.256;10.386;2024-01-30T07:07:54;5.70;99.90
2625;DHT22;1322;53.256;10.386;2024-01-30T07:10:19;5.90;99.90
2625;DHT22;1322;53.256;10.386;2024-01-30T07:12:45;5.80;99.90
2625;DHT22;1322;53.256;10.386;2024-01-30T07:15:11;5.70;99.90
2625;DHT22;1322;53.256;10.386;2024-01-30T07:17:37;5.80;99.90
2625;DHT22;1322;53.256;10.386;2024-01-30T07:20:03;5.70;99.90
2625;DHT22;1322;53.256;10.386;2024-01-30T07:22:30;5.80;99.90
2625;DHT22;1322;53.256;10.386;2024-01-30T07:24:56;5.90;99.90
2625;DHT22;1322;53.256;10.386;2024-01-30T07:29:48;5.90;99.90
2625;DHT22;1322;53.256;10.386;2024-01-30T07:32:14;5.60;99.90
2625;DHT22;1322;53.256;10.386;2024-01-30T07:34:39;5.90;99.90
2625;DHT22;1322;53.256;10.386;2024-01-30T07:37:05;6.00;99.90
2625;DHT22;1322;53.256;10.386;2024-01-30T07:44:26;6.20;99.90
2625;DHT22;1322;53.256;10.386;2024-01-30T07:46:52;6.30;99.90
2625;DHT22;1322;53.256;10.386;2024-01-30T07:49:32;6.40;99.90
2625;DHT22;1322;53.256;10.386;2024-01-30T07:51:58;6.30;99.90
2625;DHT22;1322;53.256;10.386;2024-01-30T07:54:23;6.30;99.90
2625;DHT22;1322;53.256;10.386;2024-01-30T07:56:49;6.30;99.90
2625;DHT22;1322;53.256;10.386;2024-01-30T07:59:15;6.40;99.90
2625;DHT22;1322;53.256;10.386;2024-01-30T08:01:40;6.60;99.90
2625;DHT22;1322;53.256;10.386;2024-01-30T08:04:06;7.10;99.90
2625;DHT22;1322;53.256;10.386;2024-01-30T08:06:32;6.80;99.90
2625;DHT22;1322;53.256;10.386;2024-01-30T08:11:24;6.80;99.90
2625;DHT22;1322;53.256;10.386;2024-01-30T08:13:52;6.80;99.90
2625;DHT22;1322;53.256;10.386;2024-01-30T08:16:18;6.90;99.90
2625;DHT22;1322;53.256;10.386;2024-01-30T08:18:43;7.00;99.90
2625;DHT22;1322;53.256;10.386;2024-01-30T08:21:09;7.10;99.90
2625;DHT22;1322;53.256;10.386;2024-01-30T08:23:35;6.90;99.90
2625;DHT22;1322;53.256;10.386;2024-01-30T08:26:00;6.90;99.90
2625;DHT22;1322;53.256;10.386;2024-01-30T08:28:26;7.10;99.90
2625;DHT22;1322;53.256;10.386;2024-01-30T08:30:52;7.10;99.90
2625;DHT22;1322;53.256;10.386;2024-01-30T08:33:18;7.00;99.90
2625;DHT22;1322;53.256;10.386;2024-01-30T08:35:43;7.10;99.90
2625;DHT22;1322;53.256;10.386;2024-01-30T08:38:09;7.20;99.90
2625;DHT22;1322;53.256;10.386;2024-01-30T08:40:35;7.20;99.90
2625;DHT22;1322;53.256;10.386;2024-01-30T08:43:00;7.40;99.90
2625;DHT22;1322;53.256;10.386;2024-01-30T08:45:26;7.30;99.90
2625;DHT22;1322;53.256;10.386;2024-01-30T08:47:51;7.00;99.90
2625;DHT22;1322;53.256;10.386;2024-01-30T08:50:17;7.10;99.90
2625;DHT22;1322;53.256;10.386;2024-01-30T08:52:43;7.10;99.90
2625;DHT22;1322;53.256;10.386;2024-01-30T08:55:08;7.10;99.90
2625;DHT22;1322;53.256;10.386;2024-01-30T08:57:34;7.40;99.90
2625;DHT22;1322;53.256;10.386;2024-01-30T09:00:00;7.10;99.90
2625;DHT22;1322;53.256;10.386;2024-01-30T09:02:29;7.20;99.90
2625;DHT22;1322;53.256;10.386;2024-01-30T09:04:55;7.00;99.90
2625;DHT22;1322;53.256;10.386;2024-01-30T09:07:21;7.00;99.90
2625;DHT22;1322;53.256;10.386;2024-01-30T09:09:46;7.50;99.90
2625;DHT22;1322;53.256;10.386;2024-01-30T09:12:12;7.00;99.90
2625;DHT22;1322;53.256;10.386;2024-01-30T09:14:39;7.00;99.90
2625;DHT22;1322;53.256;10.386;2024-01-30T09:17:05;6.90;99.90
2625;DHT22;1322;53.256;10.386;2024-01-30T09:19:31;7.00;99.90
2625;DHT22;1322;53.256;10.386;2024-01-30T09:21:56;7.00;99.90
2625;DHT22;1322;53.256;10.386;2024-01-30T09:24:22;7.20;99.90
2625;DHT22;1322;53.256;10.386;2024-01-30T09:26:48;7.10;99.90
2625;DHT22;1322;53.256;10.386;2024-01-30T09:29:13;7.30;99.90
2625;DHT22;1322;53.256;10.386;2024-01-30T09:31:39;7.40;99.90
2625;DHT22;1322;53.256;10.386;2024-01-30T09:34:04;7.40;99.90
2625;DHT22;1322;53.256;10.386;2024-01-30T09:36:31;7.50;99.90
2625;DHT22;1322;53.256;10.386;2024-01-30T09:38:57;7.70;99.90
2625;DHT22;1322;53.256;10.386;2024-01-30T09:41:24;7.80;99.90
2625;DHT22;1322;53.256;10.386;2024-01-30T09:43:50;7.90;99.90
2625;DHT22;1322;53.256;10.386;2024-01-30T09:46:17;8.20;99.90
2625;DHT22;1322;53.256;10.386;2024-01-30T09:48:49;8.30;99.90
2625;DHT22;1322;53.256;10.386;2024-01-30T09:51:15;8.20;99.90
2625;DHT22;1322;53.256;10.386;2024-01-30T09:53:42;8.40;99.90
2625;DHT22;1322;53.256;10.386;2024-01-30T09:56:09;8.50;99.90
2625;DHT22;1322;53.256;10.386;2024-01-30T09:58:36;8.50;99.90
2625;DHT22;1322;53.256;10.386;2024-01-30T10:01:02;8.60;99.90
2625;DHT22;1322;53.256;10.386;2024-01-30T10:03:28;8.60;99.90
2625;DHT22;1322;53.256;10.386;2024-01-30T10:05:55;8.60;99.90
2625;DHT22;1322;53.256;10.386;2024-01-30T10:08:21;8.70;99.90
2625;DHT22;1322;53.256;10.386;2024-01-30T10:10:47;8.70;99.90
2625;DHT22;1322;53.256;10.386;2024-01-30T10:13:13;8.80;99.90
2625;DHT22;1322;53.256;10.386;2024-01-30T10:15:39;8.80;99.90
2625;DHT22;1322;53.256;10.386;2024-01-30T10:18:06;8.90;99.90
2625;DHT22;1322;53.256;10.386;2024-01-30T10:20:32;8.90;99.90
2625;DHT22;1322;53.256;10.386;2024-01-30T10:22:58;9.10;99.90
2625;DHT22;1322;53.256;10.386;2024-01-30T10:25:25;9.40;99.90
2625;DHT22;1322;53.256;10.386;2024-01-30T10:27:55;9.20;99.90
2625;DHT22;1322;53.256;10.386;2024-01-30T10:30:21;9.20;99.90
2625;DHT22;1322;53.256;10.386;2024-01-30T10:32:47;9.30;99.90
2625;DHT22;1322;53.256;10.386;2024-01-30T10:35:13;9.90;99.90
2625;DHT22;1322;53.256;10.386;2024-01-30T10:37:38;9.70;99.90
2625;DHT22;1322;53.256;10.386;2024-01-30T10:40:04;9.70;99.90
2625;DHT22;1322;53.256;10.386;2024-01-30T10:42:32;9.70;99.90
2625;DHT22;1322;53.256;10.386;2024-01-30T10:45:07;9.70;99.90
2625;DHT22;1322;53.256;10.386;2024-01-30T10:47:35;9.90;99.90
2625;DHT22;1322;53.256;10.386;2024-01-30T10:50:02;9.90;99.90
2625;DHT22;1322;53.256;10.386;2024-01-30T10:52:29;10.00;99.90
2625;DHT22;1322;53.256;10.386;2024-01-30T10:54:55;10.10;99.90
2625;DHT22;1322;53.256;10.386;2024-01-30T10:57:27;10.20;99.90
2625;DHT22;1322;53.256;10.386;2024-01-30T10:59:56;10.20;99.90
2625;DHT22;1322;53.256;10.386;2024-01-30T11:02:22;10.20;99.90
2625;DHT22;1322;53.256;10.386;2024-01-30T11:07:16;10.20;99.90
2625;DHT22;1322;53.256;10.386;2024-01-30T11:09:53;10.50;99.90
2625;DHT22;1322;53.256;10.386;2024-01-30T11:12:25;10.50;99.90
2625;DHT22;1322;53.256;10.386;2024-01-30T11:15:14;10.50;99.90
2625;DHT22;1322;53.256;10.386;2024-01-30T11:18:00;10.60;99.90
2625;DHT22;1322;53.256;10.386;2024-01-30T11:20:29;10.70;99.90
2625;DHT22;1322;53.256;10.386;2024-01-30T11:22:58;10.80;99.90
2625;DHT22;1322;53.256;10.386;2024-01-30T11:25:25;11.10;99.90
2625;DHT22;1322;53.256;10.386;2024-01-30T11:27:54;11.00;99.90
2625;DHT22;1322;53.256;10.386;2024-01-30T11:33:05;11.20;99.90
2625;DHT22;1322;53.256;10.386;2024-01-30T11:35:36;11.30;99.90
2625;DHT22;1322;53.256;10.386;2024-01-30T11:38:03;11.30;99.90
2625;DHT22;1322;53.256;10.386;2024-01-30T11:40:29;11.40;99.90
2625;DHT22;1322;53.256;10.386;2024-01-30T11:42:56;11.50;99.90
2625;DHT22;1322;53.256;10.386;2024-01-30T11:45:22;11.60;99.90
2625;DHT22;1322;53.256;10.386;2024-01-30T11:47:47;11.40;99.90
2625;DHT22;1322;53.256;10.386;2024-01-30T11:50:13;11.80;99.90
2625;DHT22;1322;53.256;10.386;2024-01-30T11:52:40;11.90;99.90
2625;DHT22;1322;53.256;10.386;2024-01-30T11:55:07;11.90;99.90
2625;DHT22;1322;53.256;10.386;2024-01-30T11:57:33;11.90;99.90
2625;DHT22;1322;53.256;10.386;2024-01-30T12:00:01;12.00;99.90
2625;DHT22;1322;53.256;10.386;2024-01-30T12:02:29;12.00;99.90
2625;DHT22;1322;53.256;10.386;2024-01-30T12:04:55;12.00;99.90
2625;DHT22;1322;53.256;10.386;2024-01-30T12:07:20;12.00;99.90
2625;DHT22;1322;53.256;10.386;2024-01-30T12:09:53;11.90;99.90
2625;DHT22;1322;53.256;10.386;2024-01-30T12:12:21;11.90;99.90
2625;DHT22;1322;53.256;10.386;2024-01-30T12:14:47;12.00;99.90
2625;DHT22;1322;53.256;10.386;2024-01-30T12:17:29;11.90;99.90
2625;DHT22;1322;53.256;10.386;2024-01-30T12:20:06;11.90;99.90
2625;DHT22;1322;53.256;10.386;2024-01-30T12:22:36;11.80;99.90
2625;DHT22;1322;53.256;10.386;2024-01-30T12:25:03;11.70;99.90
2625;DHT22;1322;53.256;10.386;2024-01-30T12:27:29;11.90;99.90
2625;DHT22;1322;53.256;10.386;2024-01-30T12:29:56;11.80;99.90
2625;DHT22;1322;53.256;10.386;2024-01-30T12:32:23;11.90;99.90
2625;DHT22;1322;53.256;10.386;2024-01-30T12:34:49;11.60;99.90
2625;DHT22;1322;53.256;10.386;2024-01-30T12:37:15;12.10;99.90
2625;DHT22;1322;53.256;10.386;2024-01-30T12:39:45;12.10;99.90
2625;DHT22;1322;53.256;10.386;2024-01-30T12:42:11;12.20;99.90
2625;DHT22;1322;53.256;10.386;2024-01-30T12:44:36;12.20;99.90
2625;DHT22;1322;53.256;10.386;2024-01-30T12:47:05;12.20;99.90
2625;DHT22;1322;53.256;10.386;2024-01-30T12:49:31;12.20;99.90
2625;DHT22;1322;53.256;10.386;2024-01-30T12:51:57;12.00;99.90
2625;DHT22;1322;53.256;10.386;2024-01-30T12:54:23;11.90;99.90
2625;DHT22;1322;53.256;10.386;2024-01-30T12:56:49;11.90;99.90
2625;DHT22;1322;53.256;10.386;2024-01-30T12:59:15;11.90;99.90
2625;DHT22;1322;53.256;10.386;2024-01-30T13:01:41;11.90;99.90
2625;DHT22;1322;53.256;10.386;2024-01-30T13:04:07;11.90;99.90
2625;DHT22;1322;53.256;10.386;2024-01-30T13:06:32;11.90;99.90
2625;DHT22;1322;53.256;10.386;2024-01-30T13:08:58;12.00;99.90
2625;DHT22;1322;53.256;10.386;2024-01-30T13:11:24;11.90;99.90
2625;DHT22;1322;53.256;10.386;2024-01-30T13:13:51;11.90;99.90
2625;DHT22;1322;53.256;10.386;2024-01-30T13:16:17;11.90;99.90
2625;DHT22;1322;53.256;10.386;2024-01-30T13:18:44;11.80;99.90
2625;DHT22;1322;53.256;10.386;2024-01-30T13:21:09;11.70;99.90
2625;DHT22;1322;53.256;10.386;2024-01-30T13:23:35;11.80;99.90
2625;DHT22;1322;53.256;10.386;2024-01-30T13:26:01;11.80;99.90
2625;DHT22;1322;53.256;10.386;2024-01-30T13:28:27;11.80;99.90
2625;DHT22;1322;53.256;10.386;2024-01-30T13:30:53;11.80;99.90
2625;DHT22;1322;53.256;10.386;2024-01-30T13:35:45;11.70;99.90
2625;DHT22;1322;53.256;10.386;2024-01-30T13:38:11;11.80;99.90
2625;DHT22;1322;53.256;10.386;2024-01-30T13:40:36;11.60;99.90
2625;DHT22;1322;53.256;10.386;2024-01-30T13:43:02;11.60;99.90
2625;DHT22;1322;53.256;10.386;2024-01-30T13:45:28;11.60;99.90
2625;DHT22;1322;53.256;10.386;2024-01-30T13:47:54;11.70;99.90
2625;DHT22;1322;53.256;10.386;2024-01-30T13:50:19;11.60;99.90
2625;DHT22;1322;53.256;10.386;2024-01-30T13:52:45;11.60;99.90
2625;DHT22;1322;53.256;10.386;2024-01-30T13:55:11;11.70;99.90
2625;DHT22;1322;53.256;10.386;2024-01-30T13:57:37;11.70;99.90
2625;DHT22;1322;53.256;10.386;2024-01-30T14:00:03;11.70;99.90
2625;DHT22;1322;53.256;10.386;2024-01-30T14:02:32;11.70;99.90
2625;DHT22;1322;53.256;10.386;2024-01-30T14:04:58;11.70;99.90
2625;DHT22;1322;53.256;10.386;2024-01-30T14:07:24;11.70;99.90
2625;DHT22;1322;53.256;10.386;2024-01-30T14:09:49;11.70;99.90
2625;DHT22;1322;53.256;10.386;2024-01-30T14:12:15;11.70;99.90
2625;DHT22;1322;53.256;10.386;2024-01-30T14:14:41;11.70;99.90
2625;DHT22;1322;53.256;10.386;2024-01-30T14:17:07;11.70;99.90
2625;DHT22;1322;53.256;10.386;2024-01-30T14:19:36;11.80;99.90
2625;DHT22;1322;53.256;10.386;2024-01-30T14:22:02;11.70;99.90
2625;DHT22;1322;53.256;10.386;2024-01-30T14:24:27;11.60;99.90
2625;DHT22;1322;53.256;10.386;2024-01-30T14:26:53;11.80;99.90
2625;DHT22;1322;53.256;10.386;2024-01-30T14:29:19;11.80;99.90
2625;DHT22;1322;53.256;10.386;2024-01-30T14:31:44;11.90;99.90
2625;DHT22;1322;53.256;10.386;2024-01-30T14:34:10;12.00;99.90
2625;DHT22;1322;53.256;10.386;2024-01-30T14:36:39;11.80;99.90
2625;DHT22;1322;53.256;10.386;2024-01-30T14:39:04;11.80;99.90
2625;DHT22;1322;53.256;10.386;2024-01-30T14:41:32;11.90;99.90
2625;DHT22;1322;53.256;10.386;2024-01-30T14:43:58;11.90;99.90
2625;DHT22;1322;53.256;10.386;2024-01-30T14:46:24;11.80;99.90
2625;DHT22;1322;53.256;10.386;2024-01-30T14:48:52;11.80;99.90
2625;DHT22;1322;53.256;10.386;2024-01-30T14:51:17;11.80;99.90
2625;DHT22;1322;53.256;10.386;2024-01-30T14:53:43;11.80;99.90
2625;DHT22;1322;53.256;10.386;2024-01-30T14:56:09;11.90;99.90
2625;DHT22;1322;53.256;10.386;2024-01-30T14:58:36;11.80;99.90
2625;DHT22;1322;53.256;10.386;2024-01-30T15:01:02;11.80;99.90
2625;DHT22;1322;53.256;10.386;2024-01-30T15:03:28;11.70;99.90
2625;DHT22;1322;53.256;10.386;2024-01-30T15:05:56;11.80;99.90
2625;DHT22;1322;53.256;10.386;2024-01-30T15:08:22;11.80;99.90
2625;DHT22;1322;53.256;10.386;2024-01-30T15:10:48;11.70;99.90
2625;DHT22;1322;53.256;10.386;2024-01-30T15:13:15;11.70;99.90
2625;DHT22;1322;53.256;10.386;2024-01-30T15:15:41;11.90;99.90
2625;DHT22;1322;53.256;10.386;2024-01-30T15:18:08;11.60;99.90
2625;DHT22;1322;53.256;10.386;2024-01-30T15:20:36;11.80;99.90
2625;DHT22;1322;53.256;10.386;2024-01-30T15:23:02;11.90;99.90
2625;DHT22;1322;53.256;10.386;2024-01-30T15:25:28;11.40;99.90
2625;DHT22;1322;53.256;10.386;2024-01-30T15:27:54;11.70;99.90
2625;DHT22;1322;53.256;10.386;2024-01-30T15:30:20;11.70;99.90
2625;DHT22;1322;53.256;10.386;2024-01-30T15:32:46;11.70;99.90
2625;DHT22;1322;53.256;10.386;2024-01-30T15:35:11;11.70;99.90
2625;DHT22;1322;53.256;10.386;2024-01-30T15:37:37;11.50;99.90
2625;DHT22;1322;53.256;10.386;2024-01-30T15:40:03;11.60;99.90
2625;DHT22;1322;53.256;10.386;2024-01-30T15:42:32;11.60;99.90
2625;DHT22;1322;53.256;10.386;2024-01-30T15:44:58;11.60;99.90
2625;DHT22;1322;53.256;10.386;2024-01-30T15:47:24;11.50;99.90
2625;DHT22;1322;53.256;10.386;2024-01-30T15:49:50;11.50;99.90
2625;DHT22;1322;53.256;10.386;2024-01-30T15:52:16;11.50;99.90
2625;DHT22;1322;53.256;10.386;2024-01-30T15:54:43;11.40;99.90
2625;DHT22;1322;53.256;10.386;2024-01-30T15:57:09;11.50;99.90
2625;DHT22;1322;53.256;10.386;2024-01-30T15:59:35;11.60;99.90
2625;DHT22;1322;53.256;10.386;2024-01-30T16:02:01;11.50;99.90
2625;DHT22;1322;53.256;10.386;2024-01-30T16:04:27;11.50;99.90
2625;DHT22;1322;53.256;10.386;2024-01-30T16:06:52;11.50;99.90
2625;DHT22;1322;53.256;10.386;2024-01-30T16:09:27;11.40;99.90
2625;DHT22;1322;53.256;10.386;2024-01-30T16:11:53;11.50;99.90
2625;DHT22;1322;53.256;10.386;2024-01-30T16:14:18;11.50;99.90
2625;DHT22;1322;53.256;10.386;2024-01-30T16:16:44;11.40;99.90
2625;DHT22;1322;53.256;10.386;2024-01-30T16:19:09;11.40;99.90
2625;DHT22;1322;53.256;10.386;2024-01-30T16:21:35;11.40;99.90
2625;DHT22;1322;53.256;10.386;2024-01-30T16:24:01;11.40;99.90
2625;DHT22;1322;53.256;10.386;2024-01-30T16:26:26;11.50;99.90
2625;DHT22;1322;53.256;10.386;2024-01-30T16:28:53;11.30;99.90
2625;DHT22;1322;53.256;10.386;2024-01-30T16:31:19;11.30;99.90
2625;DHT22;1322;53.256;10.386;2024-01-30T16:33:49;11.20;99.90